Time,TemperatureF,DewpointF,PressureIn,WindDirection,WindDirectionDegrees,WindSpeedMPH,WindSpeedGustMPH,Humidity,HourlyPrecipIn,Conditions,Clouds,dailyrainin,SolarRadiationWatts/m^2,SoftwareType,DateUTC
2013-02-03 00:04:00,60.2,53.3,29.84,WSW,250,4.0,5.0,78,0.00,,,0.00,0,Wunderground v.1.15,2013-02-02 13:04:00,
2013-02-03 00:09:00,60.4,53.5,29.85,SW,232,5.0,6.0,78,0.00,,,0.00,0,Wunderground v.1.15,2013-02-02 13:09:00,
2013-02-03 00:14:00,60.6,53.3,29.85,SW,229,5.0,5.0,77,0.00,,,0.00,0,Wunderground v.1.15,2013-02-02 13:14:00,
2013-02-03 00:19:00,60.7,54.1,29.85,South,177,5.0,5.0,79,0.00,,,0.00,0,Wunderground v.1.15,2013-02-02 13:19:00,
2013-02-03 00:24:00,60.4,53.9,29.84,SW,225,5.0,5.0,79,0.00,,,0.00,0,Wunderground v.1.15,2013-02-02 13:24:00,
2013-02-03 00:29:00,60.3,53.8,29.84,WSW,256,4.0,5.0,79,0.00,,,0.00,0,Wunderground v.1.15,2013-02-02 13:29:00,
2013-02-03 00:34:00,60.2,53.7,29.84,SSW,196,4.0,4.0,79,0.00,,,0.00,0,Wunderground v.1.15,2013-02-02 13:34:00,
2013-02-03 00:39:00,60.5,54.0,29.84,SW,225,5.0,-999.0,79,0.00,,,0.00,0,Wunderground v.1.15,2013-02-02 13:39:00,
2013-02-03 00:44:00,60.0,53.5,29.84,SW,221,3.0,7.0,79,0.00,,,0.00,0,Wunderground v.1.15,2013-02-02 13:44:00,
2013-02-03 00:49:00,59.9,53.4,29.84,SW,234,3.0,7.0,79,0.00,,,0.00,0,Wunderground v.1.15,2013-02-02 13:49:00,
2013-02-03 00:54:00,59.8,52.9,29.84,South,188,3.0,4.0,78,0.00,,,0.00,0,Wunderground v.1.15,2013-02-02 13:54:00,
2013-02-03 00:59:00,60.0,53.5,29.84,South,185,4.0,7.0,79,0.00,,,0.00,0,Wunderground v.1.15,2013-02-02 13:59:00,
2013-02-03 01:04:00,60.2,53.3,29.84,West,276,4.0,6.0,78,0.00,,,0.00,0,Wunderground v.1.15,2013-02-02 14:04:00,
2013-02-03 01:09:00,60.3,53.4,29.84,SSW,204,4.0,6.0,78,0.00,,,0.00,0,Wunderground v.1.15,2013-02-02 14:09:00,
2013-02-03 01:14:00,60.0,53.5,29.84,WSW,248,4.0,-999.0,79,0.00,,,0.00,0,Wunderground v.1.15,2013-02-02 14:14:00,
2013-02-03 01:19:00,60.3,53.8,29.84,WNW,293,3.0,3.0,79,0.00,,,0.00,0,Wunderground v.1.15,2013-02-02 14:19:00,
2013-02-03 01:24:00,60.4,53.5,29.84,WSW,256,4.0,4.0,78,0.00,,,0.00,0,Wunderground v.1.15,2013-02-02 14:24:00,
2013-02-03 01:29:00,60.5,53.6,29.84,SW,220,4.0,4.0,78,0.00,,,0.00,0,Wunderground v.1.15,2013-02-02 14:29:00,
2013-02-03 01:34:00,60.7,53.8,29.83,SW,229,4.0,4.0,78,0.00,,,0.00,0,Wunderground v.1.15,2013-02-02 14:34:00,
2013-02-03 01:39:00,60.8,53.5,29.83,SSW,195,5.0,5.0,77,0.00,,,0.00,0,Wunderground v.1.15,2013-02-02 14:39:00,
2013-02-03 01:44:00,60.3,53.4,29.84,SW,225,4.0,-999.0,78,0.00,,,0.00,0,Wunderground v.1.15,2013-02-02 14:44:00,
2013-02-03 01:49:00,60.9,54.0,29.83,WSW,237,5.0,7.0,78,0.00,,,0.00,0,Wunderground v.1.15,2013-02-02 14:49:00,
2013-02-03 01:54:00,60.8,54.2,29.83,SW,225,5.0,6.0,79,0.00,,,0.00,0,Wunderground v.1.15,2013-02-02 14:54:00,
2013-02-03 01:59:00,60.6,54.0,29.83,SW,229,4.0,6.0,79,0.00,,,0.00,0,Wunderground v.1.15,2013-02-02 14:59:00,
2013-02-03 02:04:00,60.5,54.0,29.83,WSW,240,3.0,4.0,79,0.00,,,0.00,0,Wunderground v.1.15,2013-02-02 15:04:00,
2013-02-03 02:09:00,60.4,53.9,29.82,SSW,197,3.0,4.0,79,0.00,,,0.00,0,Wunderground v.1.15,2013-02-02 15:09:00,
2013-02-03 02:14:00,60.5,54.0,29.82,SSW,194,4.0,4.0,79,0.00,,,0.00,0,Wunderground v.1.15,2013-02-02 15:14:00,
2013-02-03 02:19:00,60.5,54.0,29.81,SW,225,4.0,-999.0,79,0.00,,,0.00,0,Wunderground v.1.15,2013-02-02 15:19:00,
2013-02-03 02:24:00,60.5,54.0,29.82,South,178,4.0,6.0,79,0.00,,,0.00,0,Wunderground v.1.15,2013-02-02 15:24:00,
2013-02-03 02:29:00,60.6,54.0,29.81,SW,214,5.0,6.0,79,0.00,,,0.00,0,Wunderground v.1.15,2013-02-02 15:29:00,
2013-02-03 02:34:00,60.6,54.4,29.81,WSW,250,5.0,5.0,80,0.00,,,0.00,0,Wunderground v.1.15,2013-02-02 15:34:00,
2013-02-03 02:39:00,60.5,54.3,29.81,WNW,289,3.0,5.0,80,0.00,,,0.00,0,Wunderground v.1.15,2013-02-02 15:39:00,
2013-02-03 02:44:00,60.3,54.1,29.81,WSW,256,3.0,6.0,80,0.00,,,0.00,0,Wunderground v.1.15,2013-02-02 15:44:00,
2013-02-03 02:49:00,60.2,54.0,29.81,WSW,248,3.0,-999.0,80,0.00,,,0.00,0,Wunderground v.1.15,2013-02-02 15:49:00,
2013-02-03 02:54:00,59.9,53.7,29.81,WNW,286,4.0,4.0,80,0.00,,,0.00,0,Wunderground v.1.15,2013-02-02 15:54:00,
2013-02-03 02:59:00,59.7,53.5,29.81,West,261,3.0,4.0,80,0.00,,,0.00,0,Wunderground v.1.15,2013-02-02 15:59:00,
2013-02-03 03:04:00,59.5,53.3,29.81,WSW,256,3.0,4.0,80,0.00,,,0.00,0,Wunderground v.1.15,2013-02-02 16:04:00,
2013-02-03 03:09:00,59.5,53.3,29.81,SSW,213,3.0,4.0,80,0.00,,,0.00,0,Wunderground v.1.15,2013-02-02 16:09:00,
2013-02-03 03:14:00,59.4,53.2,29.81,SW,217,3.0,4.0,80,0.00,,,0.00,0,Wunderground v.1.15,2013-02-02 16:14:00,
2013-02-03 03:19:00,59.4,53.2,29.81,WSW,252,3.0,4.0,80,0.00,,,0.00,0,Wunderground v.1.15,2013-02-02 16:19:00,
2013-02-03 03:24:00,59.5,53.0,29.80,WSW,248,3.0,-999.0,79,0.00,,,0.00,0,Wunderground v.1.15,2013-02-02 16:24:00,
2013-02-03 03:29:00,59.6,53.1,29.80,SW,222,3.0,4.0,79,0.00,,,0.00,0,Wunderground v.1.15,2013-02-02 16:29:00,
2013-02-03 03:34:00,59.4,53.2,29.80,SW,219,3.0,4.0,80,0.00,,,0.00,0,Wunderground v.1.15,2013-02-02 16:34:00,
2013-02-03 03:39:00,59.4,53.2,29.80,SW,228,3.0,4.0,80,0.00,,,0.00,0,Wunderground v.1.15,2013-02-02 16:39:00,
2013-02-03 03:44:00,59.4,52.9,29.80,South,184,4.0,7.0,79,0.00,,,0.00,0,Wunderground v.1.15,2013-02-02 16:44:00,
2013-02-03 03:49:00,59.6,53.1,29.81,SW,214,4.0,7.0,79,0.00,,,0.00,0,Wunderground v.1.15,2013-02-02 16:49:00,
2013-02-03 03:54:00,59.5,53.0,29.80,SW,225,4.0,-999.0,79,0.00,,,0.00,0,Wunderground v.1.15,2013-02-02 16:54:00,
2013-02-03 03:59:00,59.7,53.2,29.80,SSW,192,4.0,4.0,79,0.00,,,0.00,0,Wunderground v.1.15,2013-02-02 16:59:00,
2013-02-03 04:04:00,59.7,53.2,29.81,WSW,244,4.0,4.0,79,0.00,,,0.00,0,Wunderground v.1.15,2013-02-02 17:04:00,
2013-02-03 04:09:00,59.7,53.2,29.80,WSW,254,4.0,4.0,79,0.00,,,0.00,0,Wunderground v.1.15,2013-02-02 17:09:00,
2013-02-03 04:14:00,59.7,53.2,29.80,SW,234,4.0,5.0,79,0.00,,,0.00,0,Wunderground v.1.15,2013-02-02 17:14:00,
2013-02-03 04:19:00,59.7,53.2,29.80,SSW,196,4.0,5.0,79,0.00,,,0.00,0,Wunderground v.1.15,2013-02-02 17:19:00,
2013-02-03 04:24:00,59.8,52.9,29.80,WSW,255,5.0,5.0,78,0.00,,,0.00,0,Wunderground v.1.15,2013-02-02 17:24:00,
2013-02-03 04:29:00,59.7,53.2,29.80,SW,225,4.0,-999.0,79,0.00,,,0.00,0,Wunderground v.1.15,2013-02-02 17:29:00,
2013-02-03 04:34:00,59.8,53.3,29.80,SW,220,4.0,4.0,79,0.00,,,0.00,0,Wunderground v.1.15,2013-02-02 17:34:00,
2013-02-03 04:39:00,59.8,53.3,29.80,SW,219,4.0,5.0,79,0.00,,,0.00,0,Wunderground v.1.15,2013-02-02 17:39:00,
2013-02-03 04:44:00,59.9,53.4,29.80,SW,215,4.0,8.0,79,0.00,,,0.00,0,Wunderground v.1.15,2013-02-02 17:44:00,
2013-02-03 04:49:00,59.9,53.4,29.80,South,181,4.0,8.0,79,0.00,,,0.00,0,Wunderground v.1.15,2013-02-02 17:49:00,
2013-02-03 04:54:00,59.8,53.3,29.80,West,264,4.0,4.0,79,0.00,,,0.00,0,Wunderground v.1.15,2013-02-02 17:54:00,
2013-02-03 04:59:00,59.8,53.3,29.80,SW,225,4.0,-999.0,79,0.00,,,0.00,0,Wunderground v.1.15,2013-02-02 17:59:00,
2013-02-03 05:04:00,59.7,53.2,29.80,NW,304,4.0,7.0,79,0.00,,,0.00,0,Wunderground v.1.15,2013-02-02 18:04:00,
2013-02-03 05:09:00,59.8,52.9,29.80,West,262,4.0,7.0,78,0.00,,,0.00,0,Wunderground v.1.15,2013-02-02 18:09:00,
2013-02-03 05:14:00,59.9,53.0,29.80,WSW,250,5.0,5.0,78,0.00,,,0.00,0,Wunderground v.1.15,2013-02-02 18:14:00,
2013-02-03 05:19:00,60.1,52.9,29.81,SW,218,5.0,5.0,77,0.00,,,0.00,0,Wunderground v.1.15,2013-02-02 18:19:00,
2013-02-03 05:24:00,60.2,53.0,29.81,West,264,5.0,11.0,77,0.00,,,0.00,0,Wunderground v.1.15,2013-02-02 18:24:00,
2013-02-03 05:29:00,60.3,53.1,29.80,SSW,211,4.0,11.0,77,0.00,,,0.00,0,Wunderground v.1.15,2013-02-02 18:29:00,
2013-02-03 05:34:00,60.0,52.8,29.80,SW,225,4.0,-999.0,77,0.00,,,0.00,0,Wunderground v.1.15,2013-02-02 18:34:00,
2013-02-03 05:39:00,60.3,53.1,29.81,SW,214,5.0,6.0,77,0.00,,,0.00,0,Wunderground v.1.15,2013-02-02 18:39:00,
2013-02-03 05:44:00,60.3,53.1,29.81,SSW,201,4.0,4.0,77,0.00,,,0.00,0,Wunderground v.1.15,2013-02-02 18:44:00,
2013-02-03 05:49:00,60.3,53.1,29.81,SSW,199,3.0,5.0,77,0.00,,,0.00,0,Wunderground v.1.15,2013-02-02 18:49:00,
2013-02-03 05:54:00,60.4,52.8,29.81,West,259,4.0,4.0,76,0.00,,,0.00,0,Wunderground v.1.15,2013-02-02 18:54:00,
2013-02-03 05:59:00,60.4,52.8,29.81,West,264,4.0,6.0,76,0.00,,,0.00,0,Wunderground v.1.15,2013-02-02 18:59:00,
2013-02-03 06:04:00,60.4,52.8,29.81,WSW,254,4.0,4.0,76,0.00,,,0.00,0,Wunderground v.1.15,2013-02-02 19:04:00,
2013-02-03 06:09:00,60.5,52.9,29.82,SSW,204,5.0,5.0,76,0.00,,,0.00,0,Wunderground v.1.15,2013-02-02 19:09:00,
2013-02-03 06:14:00,60.5,52.9,29.82,SW,234,5.0,5.0,76,0.00,,,0.00,0,Wunderground v.1.15,2013-02-02 19:14:00,
2013-02-03 06:19:00,60.5,52.9,29.82,SW,219,4.0,5.0,76,0.00,,,0.00,0,Wunderground v.1.15,2013-02-02 19:19:00,
2013-02-03 06:24:00,60.3,53.1,29.82,WSW,242,4.0,4.0,77,0.00,,,0.00,0,Wunderground v.1.15,2013-02-02 19:24:00,
2013-02-03 06:29:00,60.0,52.8,29.82,SW,215,4.0,4.0,77,0.00,,,0.00,5,Wunderground v.1.15,2013-02-02 19:29:00,
2013-02-03 06:34:00,60.0,52.8,29.83,WSW,242,4.0,4.0,77,0.00,,,0.00,5,Wunderground v.1.15,2013-02-02 19:34:00,
2013-02-03 06:39:00,60.4,53.2,29.82,SW,225,4.0,-999.0,77,0.00,,,0.00,0,Wunderground v.1.15,2013-02-02 19:39:00,
2013-02-03 06:44:00,60.0,52.8,29.83,West,260,3.0,7.0,77,0.00,,,0.00,9,Wunderground v.1.15,2013-02-02 19:44:00,
2013-02-03 06:49:00,60.1,52.5,29.83,WNW,286,4.0,7.0,76,0.00,,,0.00,12,Wunderground v.1.15,2013-02-02 19:49:00,
2013-02-03 06:54:00,60.3,52.7,29.84,WSW,244,4.0,4.0,76,0.00,,,0.00,11,Wunderground v.1.15,2013-02-02 19:54:00,
2013-02-03 06:59:00,60.3,52.7,29.84,WSW,258,4.0,5.0,76,0.00,,,0.00,7,Wunderground v.1.15,2013-02-02 19:59:00,
2013-02-03 07:04:00,60.4,53.2,29.84,South,188,4.0,4.0,77,0.00,,,0.00,11,Wunderground v.1.15,2013-02-02 20:04:00,
2013-02-03 07:09:00,60.1,52.5,29.84,SW,225,3.0,-999.0,76,0.00,,,0.00,7,Wunderground v.1.15,2013-02-02 20:09:00,
2013-02-03 07:14:00,60.0,53.1,29.84,SW,219,4.0,4.0,78,0.00,,,0.00,33,Wunderground v.1.15,2013-02-02 20:14:00,
2013-02-03 07:19:00,60.0,53.1,29.84,West,273,4.0,4.0,78,0.00,,,0.00,39,Wunderground v.1.15,2013-02-02 20:19:00,
2013-02-03 07:24:00,60.1,53.2,29.84,SW,233,3.0,3.0,78,0.00,,,0.00,62,Wunderground v.1.15,2013-02-02 20:24:00,
2013-02-03 07:29:00,60.3,53.1,29.85,West,281,3.0,4.0,77,0.00,,,0.00,67,Wunderground v.1.15,2013-02-02 20:29:00,
2013-02-03 07:34:00,60.4,53.2,29.85,West,269,3.0,4.0,77,0.00,,,0.00,23,Wunderground v.1.15,2013-02-02 20:34:00,
2013-02-03 07:39:00,60.5,53.3,29.85,SW,215,3.0,4.0,77,0.00,,,0.00,30,Wunderground v.1.15,2013-02-02 20:39:00,
2013-02-03 07:44:00,60.1,52.9,29.84,SW,225,4.0,-999.0,77,0.00,,,0.00,34,Wunderground v.1.15,2013-02-02 20:44:00,
2013-02-03 07:49:00,60.4,53.2,29.86,WSW,240,4.0,4.0,77,0.00,,,0.00,67,Wunderground v.1.15,2013-02-02 20:49:00,
2013-02-03 07:54:00,60.5,53.3,29.85,SW,220,4.0,4.0,77,0.00,,,0.00,72,Wunderground v.1.15,2013-02-02 20:54:00,
2013-02-03 07:59:00,60.7,53.8,29.85,SW,217,4.0,4.0,78,0.00,,,0.00,128,Wunderground v.1.15,2013-02-02 20:59:00,
2013-02-03 08:04:00,60.7,53.4,29.86,WSW,255,3.0,4.0,77,0.00,,,0.00,86,Wunderground v.1.15,2013-02-02 21:04:00,
2013-02-03 08:09:00,60.9,53.3,29.86,West,261,3.0,4.0,76,0.00,,,0.00,56,Wunderground v.1.15,2013-02-02 21:09:00,
2013-02-03 08:14:00,60.5,53.6,29.85,SW,225,4.0,-999.0,78,0.00,,,0.00,60,Wunderground v.1.15,2013-02-02 21:14:00,
2013-02-03 08:19:00,60.8,53.5,29.87,SSE,162,4.0,5.0,77,0.00,,,0.00,109,Wunderground v.1.15,2013-02-02 21:19:00,
2013-02-03 08:24:00,61.0,53.7,29.86,SW,219,4.0,4.0,77,0.00,,,0.00,188,Wunderground v.1.15,2013-02-02 21:24:00,
2013-02-03 08:29:00,61.5,53.5,29.87,SW,236,4.0,4.0,75,0.00,,,0.00,190,Wunderground v.1.15,2013-02-02 21:29:00,
2013-02-03 08:34:00,62.1,54.1,29.87,West,281,4.0,8.0,75,0.00,,,0.00,257,Wunderground v.1.15,2013-02-02 21:34:00,
2013-02-03 08:39:00,62.5,54.1,29.87,West,261,4.0,10.0,74,0.00,,,0.00,195,Wunderground v.1.15,2013-02-02 21:39:00,
2013-02-03 08:44:00,62.5,53.7,29.87,WNW,292,5.0,5.0,73,0.00,,,0.00,185,Wunderground v.1.15,2013-02-02 21:44:00,
2013-02-03 08:49:00,62.2,53.8,29.87,SW,225,5.0,-999.0,74,0.00,,,0.00,165,Wunderground v.1.15,2013-02-02 21:49:00,
2013-02-03 08:54:00,61.9,53.1,29.87,SSW,211,6.0,6.0,73,0.00,,,0.00,83,Wunderground v.1.15,2013-02-02 21:54:00,
2013-02-03 08:59:00,61.8,53.4,29.87,SW,225,5.0,6.0,74,0.00,,,0.00,144,Wunderground v.1.15,2013-02-02 21:59:00,
2013-02-03 09:04:00,61.8,53.1,29.87,West,269,4.0,4.0,73,0.00,,,0.00,318,Wunderground v.1.15,2013-02-02 22:04:00,
2013-02-03 09:09:00,62.1,53.0,29.87,SW,225,4.0,4.0,72,0.00,,,0.00,218,Wunderground v.1.15,2013-02-02 22:09:00,
2013-02-03 09:14:00,62.9,53.0,29.87,SSW,195,5.0,10.0,70,0.00,,,0.00,617,Wunderground v.1.15,2013-02-02 22:14:00,
2013-02-03 09:19:00,62.7,52.8,29.87,SW,225,6.0,-999.0,70,0.00,,,0.00,466,Wunderground v.1.15,2013-02-02 22:19:00,
2013-02-03 09:24:00,63.2,52.9,29.87,WSW,248,7.0,7.0,69,0.00,,,0.00,334,Wunderground v.1.15,2013-02-02 22:24:00,
2013-02-03 09:29:00,63.7,53.7,29.87,SW,221,6.0,7.0,70,0.00,,,0.00,642,Wunderground v.1.15,2013-02-02 22:29:00,
2013-02-03 09:34:00,64.2,53.8,29.87,WSW,256,5.0,6.0,69,0.00,,,0.00,661,Wunderground v.1.15,2013-02-02 22:34:00,
2013-02-03 09:39:00,64.7,53.9,29.87,SSW,199,5.0,7.0,68,0.00,,,0.00,677,Wunderground v.1.15,2013-02-02 22:39:00,
2013-02-03 09:44:00,64.6,53.4,29.87,West,264,6.0,6.0,67,0.00,,,0.00,696,Wunderground v.1.15,2013-02-02 22:44:00,
2013-02-03 09:49:00,64.9,53.7,29.87,WSW,237,6.0,9.0,67,0.00,,,0.00,701,Wunderground v.1.15,2013-02-02 22:49:00,
2013-02-03 09:54:00,64.7,53.1,29.87,SW,225,6.0,-999.0,66,0.00,,,0.00,694,Wunderground v.1.15,2013-02-02 22:54:00,
2013-02-03 09:59:00,65.4,53.7,29.87,WSW,252,6.0,6.0,66,0.00,,,0.00,749,Wunderground v.1.15,2013-02-02 22:59:00,
2013-02-03 10:04:00,65.9,54.2,29.87,West,263,6.0,6.0,66,0.00,,,0.00,380,Wunderground v.1.15,2013-02-02 23:04:00,
2013-02-03 10:09:00,65.8,54.1,29.87,WSW,254,6.0,6.0,66,0.00,,,0.00,408,Wunderground v.1.15,2013-02-02 23:09:00,
2013-02-03 10:14:00,65.6,53.9,29.87,SSE,163,6.0,6.0,66,0.00,,,0.00,443,Wunderground v.1.15,2013-02-02 23:14:00,
2013-02-03 10:19:00,65.7,53.6,29.87,SW,217,6.0,6.0,65,0.00,,,0.00,468,Wunderground v.1.15,2013-02-02 23:19:00,
2013-02-03 10:24:00,66.0,53.9,29.87,SW,225,5.0,-999.0,65,0.00,,,0.00,486,Wunderground v.1.15,2013-02-02 23:24:00,
2013-02-03 10:29:00,67.1,54.9,29.87,South,189,4.0,6.0,65,0.00,,,0.00,457,Wunderground v.1.15,2013-02-02 23:29:00,
2013-02-03 10:34:00,67.0,54.4,29.87,West,266,4.0,4.0,64,0.00,,,0.00,436,Wunderground v.1.15,2013-02-02 23:34:00,
2013-02-03 10:39:00,67.2,54.6,29.87,SSW,205,5.0,6.0,64,0.00,,,0.00,438,Wunderground v.1.15,2013-02-02 23:39:00,
2013-02-03 10:44:00,67.5,54.9,29.87,SSW,194,6.0,6.0,64,0.00,,,0.00,882,Wunderground v.1.15,2013-02-02 23:44:00,
2013-02-03 10:49:00,68.4,55.7,29.87,North,355,6.0,6.0,64,0.00,,,0.00,874,Wunderground v.1.15,2013-02-02 23:49:00,
2013-02-03 10:54:00,69.4,56.3,29.87,SSW,205,5.0,7.0,63,0.00,,,0.00,879,Wunderground v.1.15,2013-02-02 23:54:00,
2013-02-03 10:59:00,67.9,54.8,29.87,SW,225,6.0,-999.0,63,0.00,,,0.00,772,Wunderground v.1.15,2013-02-02 23:59:00,
2013-02-03 11:04:00,68.9,55.3,29.87,SW,223,7.0,7.0,62,0.00,,,0.00,970,Wunderground v.1.15,2013-02-03 00:04:00,
2013-02-03 11:09:00,68.3,55.2,29.87,South,169,7.0,8.0,63,0.00,,,0.00,359,Wunderground v.1.15,2013-02-03 00:09:00,
2013-02-03 11:14:00,68.1,55.5,29.88,West,266,7.0,7.0,64,0.00,,,0.00,454,Wunderground v.1.15,2013-02-03 00:14:00,
2013-02-03 11:19:00,68.5,56.3,29.88,WNW,291,6.0,11.0,65,0.00,,,0.00,475,Wunderground v.1.15,2013-02-03 00:19:00,
2013-02-03 11:24:00,68.8,55.7,29.88,West,262,6.0,8.0,63,0.00,,,0.00,466,Wunderground v.1.15,2013-02-03 00:24:00,
2013-02-03 11:29:00,68.6,55.9,29.88,SW,225,6.0,-999.0,64,0.00,,,0.00,545,Wunderground v.1.15,2013-02-03 00:29:00,
2013-02-03 11:34:00,68.3,55.6,29.87,SSW,213,6.0,6.0,64,0.00,,,0.00,473,Wunderground v.1.15,2013-02-03 00:34:00,
2013-02-03 11:39:00,69.0,56.7,29.88,WSW,257,6.0,6.0,65,0.00,,,0.00,1062,Wunderground v.1.15,2013-02-03 00:39:00,
2013-02-03 11:44:00,69.4,56.7,29.88,West,269,7.0,7.0,64,0.00,,,0.00,1004,Wunderground v.1.15,2013-02-03 00:44:00,
2013-02-03 11:49:00,70.5,57.3,29.88,SW,236,8.0,8.0,63,0.00,,,0.00,1007,Wunderground v.1.15,2013-02-03 00:49:00,
2013-02-03 11:54:00,70.1,56.5,29.88,SE,139,7.0,9.0,62,0.00,,,0.00,1023,Wunderground v.1.15,2013-02-03 00:54:00,
2013-02-03 11:59:00,70.9,58.1,29.88,SW,235,7.0,12.0,64,0.00,,,0.00,1048,Wunderground v.1.15,2013-02-03 00:59:00,
2013-02-03 12:04:00,70.6,57.8,29.88,WSW,243,7.0,7.0,64,0.00,,,0.00,1048,Wunderground v.1.15,2013-02-03 01:04:00,
2013-02-03 12:09:00,70.7,57.0,29.88,SSE,167,8.0,8.0,62,0.00,,,0.00,1016,Wunderground v.1.15,2013-02-03 01:09:00,
2013-02-03 12:14:00,71.6,57.0,29.89,WNW,286,7.0,12.0,60,0.00,,,0.00,1039,Wunderground v.1.15,2013-02-03 01:14:00,
2013-02-03 12:19:00,70.3,56.7,29.88,WSW,246,8.0,12.0,62,0.00,,,0.00,1051,Wunderground v.1.15,2013-02-03 01:19:00,
2013-02-03 12:24:00,71.5,57.8,29.88,South,181,8.0,12.0,62,0.00,,,0.00,1030,Wunderground v.1.15,2013-02-03 01:24:00,
2013-02-03 12:29:00,71.1,57.4,29.88,SSW,203,7.0,12.0,62,0.00,,,0.00,1021,Wunderground v.1.15,2013-02-03 01:29:00,
2013-02-03 12:34:00,71.0,57.3,29.88,SW,225,8.0,-999.0,62,0.00,,,0.00,1015,Wunderground v.1.15,2013-02-03 01:34:00,
2013-02-03 12:39:00,71.5,57.3,29.88,West,281,7.0,13.0,61,0.00,,,0.00,1146,Wunderground v.1.15,2013-02-03 01:39:00,
2013-02-03 12:44:00,70.6,56.5,29.88,SW,221,9.0,9.0,61,0.00,,,0.00,468,Wunderground v.1.15,2013-02-03 01:44:00,
2013-02-03 12:49:00,70.4,58.1,29.88,WSW,249,8.0,9.0,65,0.00,,,0.00,429,Wunderground v.1.15,2013-02-03 01:49:00,
2013-02-03 12:54:00,71.1,57.0,29.88,SSW,211,6.0,6.0,61,0.00,,,0.00,1071,Wunderground v.1.15,2013-02-03 01:54:00,
2013-02-03 12:59:00,71.5,58.2,29.88,SSW,210,6.0,7.0,63,0.00,,,0.00,220,Wunderground v.1.15,2013-02-03 01:59:00,
2013-02-03 13:04:00,71.2,57.5,29.88,SW,234,8.0,8.0,62,0.00,,,0.00,1107,Wunderground v.1.15,2013-02-03 02:04:00,
2013-02-03 13:09:00,71.1,57.9,29.88,SW,225,7.0,-999.0,63,0.00,,,0.00,890,Wunderground v.1.15,2013-02-03 02:09:00,
2013-02-03 13:14:00,71.9,57.3,29.87,WSW,238,7.0,7.0,60,0.00,,,0.00,1037,Wunderground v.1.15,2013-02-03 02:14:00,
2013-02-03 13:19:00,72.5,57.8,29.88,South,181,8.0,14.0,60,0.00,,,0.00,1107,Wunderground v.1.15,2013-02-03 02:19:00,
2013-02-03 13:24:00,71.5,55.9,29.87,SSW,194,9.0,9.0,58,0.00,,,0.00,1069,Wunderground v.1.15,2013-02-03 02:24:00,
2013-02-03 13:29:00,72.9,58.2,29.87,South,173,9.0,9.0,60,0.00,,,0.00,1051,Wunderground v.1.15,2013-02-03 02:29:00,
2013-02-03 13:34:00,73.8,57.1,29.87,SW,222,7.0,7.0,56,0.00,,,0.00,1055,Wunderground v.1.15,2013-02-03 02:34:00,
2013-02-03 13:39:00,71.9,57.3,29.87,SW,225,8.0,-999.0,60,0.00,,,0.00,1086,Wunderground v.1.15,2013-02-03 02:39:00,
2013-02-03 13:44:00,73.0,55.9,29.87,SW,236,9.0,15.0,55,0.00,,,0.00,1004,Wunderground v.1.15,2013-02-03 02:44:00,
2013-02-03 13:49:00,73.3,56.7,29.88,SW,217,8.0,15.0,56,0.00,,,0.00,1063,Wunderground v.1.15,2013-02-03 02:49:00,
2013-02-03 13:54:00,72.4,56.3,29.87,SSW,213,8.0,8.0,57,0.00,,,0.00,1065,Wunderground v.1.15,2013-02-03 02:54:00,
2013-02-03 13:59:00,73.0,56.9,29.88,SW,227,8.0,12.0,57,0.00,,,0.00,1023,Wunderground v.1.15,2013-02-03 02:59:00,
2013-02-03 14:04:00,73.0,57.3,29.87,WSW,251,8.0,8.0,58,0.00,,,0.00,1056,Wunderground v.1.15,2013-02-03 03:04:00,
2013-02-03 14:09:00,73.1,57.0,29.87,West,274,7.0,8.0,57,0.00,,,0.00,1056,Wunderground v.1.15,2013-02-03 03:09:00,
2013-02-03 14:14:00,73.1,57.0,29.88,SW,225,8.0,-999.0,57,0.00,,,0.00,1046,Wunderground v.1.15,2013-02-03 03:14:00,
2013-02-03 14:19:00,73.2,58.0,29.87,SW,225,7.0,-999.0,59,0.00,,,0.00,1026,Wunderground v.1.15,2013-02-03 03:19:00,
2013-02-03 14:24:00,73.2,58.0,29.87,SW,225,7.0,-999.0,59,0.00,,,0.00,1026,Wunderground v.1.15,2013-02-03 03:24:00,
2013-02-03 14:29:00,73.2,58.0,29.87,SW,225,7.0,-999.0,59,0.00,,,0.00,1026,Wunderground v.1.15,2013-02-03 03:29:00,
2013-02-03 14:34:00,73.2,58.0,29.87,SW,225,7.0,-999.0,59,0.00,,,0.00,1026,Wunderground v.1.15,2013-02-03 03:34:00,
2013-02-03 14:39:00,73.2,58.0,29.87,SW,225,7.0,-999.0,59,0.00,,,0.00,1026,Wunderground v.1.15,2013-02-03 03:39:00,
2013-02-03 14:44:00,73.2,58.0,29.87,SW,225,7.0,-999.0,59,0.00,,,0.00,1026,Wunderground v.1.15,2013-02-03 03:44:00,
2013-02-03 14:49:00,73.8,58.1,29.87,SW,225,7.0,-999.0,58,0.00,,,0.00,989,Wunderground v.1.15,2013-02-03 03:49:00,
2013-02-03 14:54:00,73.8,58.1,29.87,SW,225,7.0,-999.0,58,0.00,,,0.00,989,Wunderground v.1.15,2013-02-03 03:54:00,
2013-02-03 14:59:00,73.8,58.1,29.87,SW,225,7.0,-999.0,58,0.00,,,0.00,989,Wunderground v.1.15,2013-02-03 03:59:00,
2013-02-03 15:04:00,73.8,58.1,29.87,SW,225,7.0,-999.0,58,0.00,,,0.00,989,Wunderground v.1.15,2013-02-03 04:04:00,
2013-02-03 15:09:00,73.8,58.1,29.87,SW,225,7.0,-999.0,58,0.00,,,0.00,989,Wunderground v.1.15,2013-02-03 04:09:00,
2013-02-03 15:14:00,73.8,58.1,29.87,SW,225,7.0,-999.0,58,0.00,,,0.00,989,Wunderground v.1.15,2013-02-03 04:14:00,
2013-02-03 15:19:00,72.9,58.7,29.88,SW,225,7.0,-999.0,61,0.00,,,0.00,777,Wunderground v.1.15,2013-02-03 04:19:00,
2013-02-03 15:24:00,72.9,58.7,29.88,SW,225,7.0,-999.0,61,0.00,,,0.00,777,Wunderground v.1.15,2013-02-03 04:24:00,
2013-02-03 15:29:00,72.9,58.7,29.88,SW,225,7.0,-999.0,61,0.00,,,0.00,777,Wunderground v.1.15,2013-02-03 04:29:00,
2013-02-03 15:34:00,72.9,58.7,29.88,SW,225,7.0,-999.0,61,0.00,,,0.00,777,Wunderground v.1.15,2013-02-03 04:34:00,
2013-02-03 15:39:00,72.9,58.7,29.88,SW,225,7.0,-999.0,61,0.00,,,0.00,777,Wunderground v.1.15,2013-02-03 04:39:00,
2013-02-03 15:44:00,72.9,58.7,29.88,SW,225,7.0,-999.0,61,0.00,,,0.00,777,Wunderground v.1.15,2013-02-03 04:44:00,
2013-02-03 15:49:00,72.3,59.9,29.88,SSW,200,5.0,21.0,65,0.00,,,0.00,1056,Wunderground v.1.15,2013-02-03 04:49:00,
2013-02-03 15:54:00,72.1,59.7,29.88,West,270,5.0,-999.0,65,0.00,,,0.00,432,Wunderground v.1.15,2013-02-03 04:54:00,
2013-02-03 15:59:00,72.1,59.7,29.88,West,270,5.0,-999.0,65,0.00,,,0.00,432,Wunderground v.1.15,2013-02-03 04:59:00,
2013-02-03 16:04:00,72.1,59.7,29.88,West,270,5.0,-999.0,65,0.00,,,0.00,432,Wunderground v.1.15,2013-02-03 05:04:00,
2013-02-03 16:09:00,72.1,59.7,29.88,West,270,5.0,-999.0,65,0.00,,,0.00,432,Wunderground v.1.15,2013-02-03 05:09:00,
2013-02-03 16:14:00,72.1,59.7,29.88,West,270,5.0,-999.0,65,0.00,,,0.00,432,Wunderground v.1.15,2013-02-03 05:14:00,
2013-02-03 16:19:00,70.9,60.6,29.88,SW,225,5.0,-999.0,70,0.00,,,0.00,281,Wunderground v.1.15,2013-02-03 05:19:00,
2013-02-03 16:24:00,70.9,60.6,29.88,SW,225,5.0,-999.0,70,0.00,,,0.00,281,Wunderground v.1.15,2013-02-03 05:24:00,
2013-02-03 16:29:00,70.9,60.6,29.88,SW,225,5.0,-999.0,70,0.00,,,0.00,281,Wunderground v.1.15,2013-02-03 05:29:00,
2013-02-03 16:34:00,70.9,60.6,29.88,SW,225,5.0,-999.0,70,0.00,,,0.00,281,Wunderground v.1.15,2013-02-03 05:34:00,
2013-02-03 16:39:00,70.9,60.6,29.88,SW,225,5.0,-999.0,70,0.00,,,0.00,281,Wunderground v.1.15,2013-02-03 05:39:00,
2013-02-03 16:44:00,70.9,60.6,29.88,SW,225,5.0,-999.0,70,0.00,,,0.00,281,Wunderground v.1.15,2013-02-03 05:44:00,
2013-02-03 16:49:00,70.8,60.1,29.89,SW,225,4.0,-999.0,69,0.00,,,0.00,313,Wunderground v.1.15,2013-02-03 05:49:00,
2013-02-03 16:54:00,70.8,60.1,29.89,SW,225,4.0,-999.0,69,0.00,,,0.00,313,Wunderground v.1.15,2013-02-03 05:54:00,
2013-02-03 16:59:00,70.8,60.1,29.89,SW,225,4.0,-999.0,69,0.00,,,0.00,313,Wunderground v.1.15,2013-02-03 05:59:00,
2013-02-03 17:04:00,70.8,60.1,29.89,SW,225,4.0,-999.0,69,0.00,,,0.00,313,Wunderground v.1.15,2013-02-03 06:04:00,
2013-02-03 17:09:00,70.8,60.1,29.89,SW,225,4.0,-999.0,69,0.00,,,0.00,313,Wunderground v.1.15,2013-02-03 06:09:00,
2013-02-03 17:14:00,70.8,60.1,29.89,SW,225,4.0,-999.0,69,0.00,,,0.00,313,Wunderground v.1.15,2013-02-03 06:14:00,
2013-02-03 17:19:00,70.7,59.6,29.90,SW,225,4.0,-999.0,68,0.00,,,0.00,189,Wunderground v.1.15,2013-02-03 06:19:00,
2013-02-03 17:24:00,70.7,59.6,29.90,SW,225,4.0,-999.0,68,0.00,,,0.00,189,Wunderground v.1.15,2013-02-03 06:24:00,
2013-02-03 17:29:00,70.7,59.6,29.90,SW,225,4.0,-999.0,68,0.00,,,0.00,189,Wunderground v.1.15,2013-02-03 06:29:00,
2013-02-03 17:34:00,70.7,59.6,29.90,SW,225,4.0,-999.0,68,0.00,,,0.00,189,Wunderground v.1.15,2013-02-03 06:34:00,
2013-02-03 17:39:00,70.7,59.6,29.90,SW,225,4.0,-999.0,68,0.00,,,0.00,189,Wunderground v.1.15,2013-02-03 06:39:00,
2013-02-03 17:44:00,70.7,59.6,29.90,SW,225,4.0,-999.0,68,0.00,,,0.00,189,Wunderground v.1.15,2013-02-03 06:44:00,
2013-02-03 17:49:00,69.9,59.3,29.91,SW,225,6.0,-999.0,69,0.00,,,0.00,202,Wunderground v.1.15,2013-02-03 06:49:00,
2013-02-03 17:54:00,69.9,59.3,29.91,SW,225,6.0,-999.0,69,0.00,,,0.00,202,Wunderground v.1.15,2013-02-03 06:54:00,
2013-02-03 17:59:00,69.9,59.3,29.91,SW,225,6.0,-999.0,69,0.00,,,0.00,202,Wunderground v.1.15,2013-02-03 06:59:00,
2013-02-03 18:04:00,69.9,59.3,29.91,SW,225,6.0,-999.0,69,0.00,,,0.00,202,Wunderground v.1.15,2013-02-03 07:04:00,
2013-02-03 18:09:00,69.9,59.3,29.91,SW,225,6.0,-999.0,69,0.00,,,0.00,202,Wunderground v.1.15,2013-02-03 07:09:00,
2013-02-03 18:14:00,69.9,59.3,29.91,SW,225,6.0,-999.0,69,0.00,,,0.00,202,Wunderground v.1.15,2013-02-03 07:14:00,
2013-02-03 18:19:00,70.8,59.3,29.92,SW,225,5.0,-999.0,67,0.00,,,0.00,296,Wunderground v.1.15,2013-02-03 07:19:00,
2013-02-03 18:24:00,70.8,59.3,29.92,SW,225,5.0,-999.0,67,0.00,,,0.00,296,Wunderground v.1.15,2013-02-03 07:24:00,
2013-02-03 18:29:00,70.8,59.3,29.92,SW,225,5.0,-999.0,67,0.00,,,0.00,296,Wunderground v.1.15,2013-02-03 07:29:00,
2013-02-03 18:34:00,70.8,59.3,29.92,SW,225,5.0,-999.0,67,0.00,,,0.00,296,Wunderground v.1.15,2013-02-03 07:34:00,
2013-02-03 18:39:00,70.8,59.3,29.92,SW,225,5.0,-999.0,67,0.00,,,0.00,296,Wunderground v.1.15,2013-02-03 07:39:00,
2013-02-03 18:44:00,70.8,59.3,29.92,SW,225,5.0,-999.0,67,0.00,,,0.00,296,Wunderground v.1.15,2013-02-03 07:44:00,
2013-02-03 18:49:00,71.1,60.0,29.93,SW,225,4.0,-999.0,68,0.00,,,0.00,200,Wunderground v.1.15,2013-02-03 07:49:00,
2013-02-03 18:54:00,71.1,60.0,29.93,SW,225,4.0,-999.0,68,0.00,,,0.00,200,Wunderground v.1.15,2013-02-03 07:54:00,
2013-02-03 18:59:00,71.1,60.0,29.93,SW,225,4.0,-999.0,68,0.00,,,0.00,200,Wunderground v.1.15,2013-02-03 07:59:00,
2013-02-03 19:04:00,71.1,60.0,29.93,SW,225,4.0,-999.0,68,0.00,,,0.00,200,Wunderground v.1.15,2013-02-03 08:04:00,
2013-02-03 19:09:00,71.1,60.0,29.93,SW,225,4.0,-999.0,68,0.00,,,0.00,200,Wunderground v.1.15,2013-02-03 08:09:00,
2013-02-03 19:14:00,71.1,60.0,29.93,SW,225,4.0,-999.0,68,0.00,,,0.00,200,Wunderground v.1.15,2013-02-03 08:14:00,
2013-02-03 19:19:00,69.5,60.1,29.94,WSW,248,3.0,-999.0,72,0.00,,,0.00,59,Wunderground v.1.15,2013-02-03 08:19:00,
2013-02-03 19:24:00,69.5,60.1,29.94,WSW,248,3.0,-999.0,72,0.00,,,0.00,59,Wunderground v.1.15,2013-02-03 08:24:00,
2013-02-03 19:29:00,69.5,60.1,29.94,WSW,248,3.0,-999.0,72,0.00,,,0.00,59,Wunderground v.1.15,2013-02-03 08:29:00,
2013-02-03 19:34:00,69.5,60.1,29.94,WSW,248,3.0,-999.0,72,0.00,,,0.00,59,Wunderground v.1.15,2013-02-03 08:34:00,
2013-02-03 19:39:00,69.5,60.1,29.94,WSW,248,3.0,-999.0,72,0.00,,,0.00,59,Wunderground v.1.15,2013-02-03 08:39:00,
2013-02-03 19:44:00,69.5,60.1,29.94,WSW,248,3.0,-999.0,72,0.00,,,0.00,59,Wunderground v.1.15,2013-02-03 08:44:00,
2013-02-03 19:49:00,68.1,60.2,29.95,SW,225,4.0,-999.0,76,0.00,,,0.00,11,Wunderground v.1.15,2013-02-03 08:49:00,
2013-02-03 19:54:00,68.1,60.2,29.95,SW,225,4.0,-999.0,76,0.00,,,0.00,11,Wunderground v.1.15,2013-02-03 08:54:00,
2013-02-03 19:59:00,68.1,60.2,29.95,SW,225,4.0,-999.0,76,0.00,,,0.00,11,Wunderground v.1.15,2013-02-03 08:59:00,
2013-02-03 20:04:00,68.1,60.2,29.95,SW,225,4.0,-999.0,76,0.00,,,0.00,11,Wunderground v.1.15,2013-02-03 09:04:00,
2013-02-03 20:09:00,68.1,60.2,29.95,SW,225,4.0,-999.0,76,0.00,,,0.00,11,Wunderground v.1.15,2013-02-03 09:09:00,
2013-02-03 20:14:00,68.1,60.2,29.95,SW,225,4.0,-999.0,76,0.00,,,0.00,11,Wunderground v.1.15,2013-02-03 09:14:00,
2013-02-03 20:19:00,67.4,59.9,29.95,SW,225,3.0,-999.0,77,0.00,,,0.00,0,Wunderground v.1.15,2013-02-03 09:19:00,
2013-02-03 20:24:00,67.4,59.9,29.95,SW,225,3.0,-999.0,77,0.00,,,0.00,0,Wunderground v.1.15,2013-02-03 09:24:00,
2013-02-03 20:29:00,67.4,59.9,29.95,SW,225,3.0,-999.0,77,0.00,,,0.00,0,Wunderground v.1.15,2013-02-03 09:29:00,
2013-02-03 20:34:00,67.4,59.9,29.95,SW,225,3.0,-999.0,77,0.00,,,0.00,0,Wunderground v.1.15,2013-02-03 09:34:00,
2013-02-03 20:39:00,67.4,59.9,29.95,SW,225,3.0,-999.0,77,0.00,,,0.00,0,Wunderground v.1.15,2013-02-03 09:39:00,
2013-02-03 20:44:00,67.4,59.9,29.95,SW,225,3.0,-999.0,77,0.00,,,0.00,0,Wunderground v.1.15,2013-02-03 09:44:00,
2013-02-03 20:49:00,67.4,61.0,29.95,SW,225,3.0,-999.0,80,0.00,,,0.00,0,Wunderground v.1.15,2013-02-03 09:49:00,
2013-02-03 20:54:00,67.4,61.0,29.95,SW,225,3.0,-999.0,80,0.00,,,0.00,0,Wunderground v.1.15,2013-02-03 09:54:00,
2013-02-03 20:59:00,67.4,61.0,29.95,SW,225,3.0,-999.0,80,0.00,,,0.00,0,Wunderground v.1.15,2013-02-03 09:59:00,
2013-02-03 21:04:00,67.4,61.0,29.95,SW,225,3.0,-999.0,80,0.00,,,0.00,0,Wunderground v.1.15,2013-02-03 10:04:00,
2013-02-03 21:09:00,67.4,61.0,29.95,SW,225,3.0,-999.0,80,0.00,,,0.00,0,Wunderground v.1.15,2013-02-03 10:09:00,
2013-02-03 21:14:00,67.4,61.0,29.95,SW,225,3.0,-999.0,80,0.00,,,0.00,0,Wunderground v.1.15,2013-02-03 10:14:00,
2013-02-03 21:19:00,67.5,60.8,29.96,SW,225,3.0,-999.0,79,0.00,,,0.00,0,Wunderground v.1.15,2013-02-03 10:19:00,
2013-02-03 21:24:00,67.5,60.8,29.96,SW,225,3.0,-999.0,79,0.00,,,0.00,0,Wunderground v.1.15,2013-02-03 10:24:00,
2013-02-03 21:29:00,67.5,60.8,29.96,SW,225,3.0,-999.0,79,0.00,,,0.00,0,Wunderground v.1.15,2013-02-03 10:29:00,
2013-02-03 21:34:00,67.5,60.8,29.96,SW,225,3.0,-999.0,79,0.00,,,0.00,0,Wunderground v.1.15,2013-02-03 10:34:00,
2013-02-03 21:39:00,67.5,60.8,29.96,SW,225,3.0,-999.0,79,0.00,,,0.00,0,Wunderground v.1.15,2013-02-03 10:39:00,
2013-02-03 21:44:00,67.5,60.8,29.96,SW,225,3.0,-999.0,79,0.00,,,0.00,0,Wunderground v.1.15,2013-02-03 10:44:00,
2013-02-03 21:49:00,67.2,60.1,29.98,SW,225,3.0,-999.0,78,0.00,,,0.00,0,Wunderground v.1.15,2013-02-03 10:49:00,
2013-02-03 21:54:00,67.2,60.1,29.98,SW,225,3.0,-999.0,78,0.00,,,0.00,0,Wunderground v.1.15,2013-02-03 10:54:00,
2013-02-03 21:59:00,67.2,60.1,29.98,SW,225,3.0,-999.0,78,0.00,,,0.00,0,Wunderground v.1.15,2013-02-03 10:59:00,
2013-02-03 22:04:00,67.2,60.1,29.98,SW,225,3.0,-999.0,78,0.00,,,0.00,0,Wunderground v.1.15,2013-02-03 11:04:00,
2013-02-03 22:09:00,67.2,60.1,29.98,SW,225,3.0,-999.0,78,0.00,,,0.00,0,Wunderground v.1.15,2013-02-03 11:09:00,
2013-02-03 22:14:00,67.2,60.1,29.98,SW,225,3.0,-999.0,78,0.00,,,0.00,0,Wunderground v.1.15,2013-02-03 11:14:00,
2013-02-03 22:19:00,67.1,61.1,29.98,SW,225,4.0,-999.0,81,0.00,,,0.00,0,Wunderground v.1.15,2013-02-03 11:19:00,
2013-02-03 22:24:00,67.1,61.1,29.98,SW,225,4.0,-999.0,81,0.00,,,0.00,0,Wunderground v.1.15,2013-02-03 11:24:00,
2013-02-03 22:29:00,67.1,61.1,29.98,SW,225,4.0,-999.0,81,0.00,,,0.00,0,Wunderground v.1.15,2013-02-03 11:29:00,
2013-02-03 22:34:00,67.1,61.1,29.98,SW,225,4.0,-999.0,81,0.00,,,0.00,0,Wunderground v.1.15,2013-02-03 11:34:00,
2013-02-03 22:39:00,67.1,61.1,29.98,SW,225,4.0,-999.0,81,0.00,,,0.00,0,Wunderground v.1.15,2013-02-03 11:39:00,
2013-02-03 22:44:00,67.1,61.1,29.98,SW,225,4.0,-999.0,81,0.00,,,0.00,0,Wunderground v.1.15,2013-02-03 11:44:00,
2013-02-03 22:49:00,67.1,61.8,29.98,SW,225,3.0,-999.0,83,0.00,,,0.00,0,Wunderground v.1.15,2013-02-03 11:49:00,
2013-02-03 22:54:00,67.1,61.8,29.98,SW,225,3.0,-999.0,83,0.00,,,0.00,0,Wunderground v.1.15,2013-02-03 11:54:00,
2013-02-03 22:59:00,67.1,61.8,29.98,SW,225,3.0,-999.0,83,0.00,,,0.00,0,Wunderground v.1.15,2013-02-03 11:59:00,
2013-02-03 23:04:00,67.1,61.8,29.98,SW,225,3.0,-999.0,83,0.00,,,0.00,0,Wunderground v.1.15,2013-02-03 12:04:00,
2013-02-03 23:09:00,67.1,61.8,29.98,SW,225,3.0,-999.0,83,0.00,,,0.00,0,Wunderground v.1.15,2013-02-03 12:09:00,
2013-02-03 23:14:00,67.1,61.8,29.98,SW,225,3.0,-999.0,83,0.00,,,0.00,0,Wunderground v.1.15,2013-02-03 12:14:00,
2013-02-03 23:19:00,66.8,62.1,29.99,SW,225,3.0,-999.0,85,0.00,,,0.00,0,Wunderground v.1.15,2013-02-03 12:19:00,
2013-02-03 23:24:00,66.8,62.1,29.99,SW,225,3.0,-999.0,85,0.00,,,0.00,0,Wunderground v.1.15,2013-02-03 12:24:00,
2013-02-03 23:29:00,66.8,62.1,29.99,SW,225,3.0,-999.0,85,0.00,,,0.00,0,Wunderground v.1.15,2013-02-03 12:29:00,
2013-02-03 23:34:00,66.8,62.1,29.99,SW,225,3.0,-999.0,85,0.00,,,0.00,0,Wunderground v.1.15,2013-02-03 12:34:00,
2013-02-03 23:39:00,66.8,62.1,29.99,SW,225,3.0,-999.0,85,0.00,,,0.00,0,Wunderground v.1.15,2013-02-03 12:39:00,
2013-02-03 23:44:00,66.8,62.1,29.99,SW,225,3.0,-999.0,85,0.00,,,0.00,0,Wunderground v.1.15,2013-02-03 12:44:00,
2013-02-03 23:49:00,66.3,62.0,29.99,SW,225,3.0,-999.0,86,0.00,,,0.00,0,Wunderground v.1.15,2013-02-03 12:49:00,
2013-02-03 23:54:00,66.3,62.0,29.99,SW,225,3.0,-999.0,86,0.00,,,0.00,0,Wunderground v.1.15,2013-02-03 12:54:00,
2013-02-03 23:59:00,66.3,62.0,29.99,SW,225,3.0,-999.0,86,0.00,,,0.00,0,Wunderground v.1.15,2013-02-03 12:59:00,